Time;durP1;ratioP1;P1;durP2;ratioP2;P2;SDS_P1;SDS_P2;PMS_P1;PMS_P2;Temp;Humidity;BMP_temperature;BMP_pressure;BME280_temperature;BME280_humidity;BME280_pressure;Samples;Min_cycle;Max_cycle;Signal;HPM_P1;HPM_P2
2022/06/29 00:00:26;;;;;;;0.20;0.15;;;16.10;95.60;;;;;;5025137;28;20585;-72
2022/06/29 00:02:53;;;;;;;0.25;0.15;;;16.10;95.60;;;;;;5036218;28;20139;-72
2022/06/29 00:05:21;;;;;;;0.38;0.20;;;16.10;95.70;;;;;;5041707;28;20111;-72
2022/06/29 00:07:48;;;;;;;0.30;0.30;;;16.10;95.80;;;;;;5043814;28;20140;-72
2022/06/29 00:10:15;;;;;;;0.17;0.17;;;16.10;96.00;;;;;;5036025;28;20083;-72
2022/06/29 00:12:43;;;;;;;0.60;0.30;;;16.10;96.00;;;;;;5005574;28;20136;-72
2022/06/29 00:15:10;;;;;;;0.65;0.22;;;16.10;96.20;;;;;;5036662;28;20083;-72
2022/06/29 00:17:37;;;;;;;0.43;0.30;;;16.10;96.10;;;;;;5010321;28;20464;-72
2022/06/29 00:20:05;;;;;;;0.57;0.28;;;16.10;96.40;;;;;;5041559;28;20144;-72
2022/06/29 00:22:31;;;;;;;0.32;0.20;;;16.10;96.20;;;;;;5007734;28;20057;-71
2022/06/29 00:24:58;;;;;;;0.50;0.25;;;16.10;96.30;;;;;;5043183;28;20156;-71
2022/06/29 00:27:25;;;;;;;0.20;0.20;;;16.00;96.40;;;;;;5028736;28;20132;-71
2022/06/29 00:29:53;;;;;;;0.43;0.30;;;16.00;96.60;;;;;;5048647;28;20457;-71
2022/06/29 00:32:19;;;;;;;0.35;0.25;;;16.00;96.60;;;;;;5038271;28;20508;-71
2022/06/29 00:34:46;;;;;;;0.70;0.20;;;16.00;96.80;;;;;;5048370;28;20145;-71
2022/06/29 00:37:13;;;;;;;1.02;0.30;;;16.00;96.90;;;;;;5049620;28;20071;-71
2022/06/29 00:39:40;;;;;;;0.10;0.10;;;15.90;96.90;;;;;;5031341;28;20136;-72
2022/06/29 00:42:07;;;;;;;0.68;0.30;;;15.90;97.10;;;;;;5048080;28;20081;-71
2022/06/29 00:44:34;;;;;;;0.52;0.30;;;15.90;97.30;;;;;;5044410;28;20141;-72
2022/06/29 00:47:03;;;;;;;0.30;0.28;;;15.90;97.50;;;;;;5024293;28;20136;-71
2022/06/29 00:49:30;;;;;;;0.25;0.20;;;15.90;97.70;;;;;;5012973;28;20053;-71
2022/06/29 00:52:03;;;;;;;0.20;0.20;;;15.90;97.90;;;;;;5028429;28;20037;-71
2022/06/29 00:54:31;;;;;;;;;;;15.90;98.40;;;;;;5045238;28;20088;-71
2022/06/29 00:56:58;;;;;;;0.73;0.50;;;15.80;99.00;;;;;;5044924;28;19927;-71
2022/06/29 00:59:25;;;;;;;0.40;0.30;;;15.80;99.70;;;;;;5028084;28;20453;-71
2022/06/29 01:01:51;;;;;;;0.20;0.15;;;15.80;99.90;;;;;;5028100;28;20076;-71
2022/06/29 01:04:18;;;;;;;0.25;0.20;;;15.80;99.90;;;;;;5044018;28;20404;-71
2022/06/29 01:06:45;;;;;;;0.40;0.20;;;15.80;99.90;;;;;;5043516;28;20052;-71
2022/06/29 01:09:12;;;;;;;0.40;0.20;;;15.80;99.90;;;;;;5029551;28;20049;-71
2022/06/29 01:11:39;;;;;;;0.30;0.20;;;15.80;99.90;;;;;;5027462;28;20124;-71
2022/06/29 01:14:05;;;;;;;0.35;0.20;;;15.80;99.90;;;;;;5027363;28;20137;-71
2022/06/29 01:16:32;;;;;;;0.57;0.20;;;15.80;99.90;;;;;;5045003;28;20084;-72
2022/06/29 01:18:59;;;;;;;0.73;0.20;;;15.80;99.90;;;;;;5044066;28;20130;-71
2022/06/29 01:21:25;;;;;;;0.32;0.30;;;15.80;99.90;;;;;;5043025;28;20051;-71
2022/06/29 01:23:52;;;;;;;0.20;0.20;;;15.80;99.90;;;;;;5001760;28;20118;-71
2022/06/29 01:26:19;;;;;;;0.22;0.20;;;15.70;99.90;;;;;;5043971;28;20131;-71
2022/06/29 01:28:46;;;;;;;0.38;0.20;;;15.70;99.90;;;;;;5044263;28;20140;-72
2022/06/29 01:31:19;;;;;;;0.75;0.30;;;15.70;99.90;;;;;;5001166;28;20067;-71
2022/06/29 01:33:46;;;;;;;;;;;15.80;99.90;;;;;;5013435;28;20049;-71
2022/06/29 01:36:14;;;;;;;0.28;0.28;;;15.80;99.90;;;;;;5044839;28;19921;-71
2022/06/29 01:38:41;;;;;;;0.10;0.10;;;15.80;99.90;;;;;;5044612;28;20179;-71
2022/06/29 01:41:08;;;;;;;0.30;0.20;;;15.80;99.90;;;;;;5007062;28;20087;-71
2022/06/29 01:43:35;;;;;;;0.22;0.20;;;15.80;99.90;;;;;;5043112;28;20095;-72
2022/06/29 01:46:02;;;;;;;0.10;0.10;;;15.80;99.90;;;;;;5027510;28;20132;-71
2022/06/29 01:48:29;;;;;;;0.30;0.30;;;15.70;99.90;;;;;;5044464;28;20098;-71
2022/06/29 01:50:55;;;;;;;0.85;0.32;;;15.70;99.90;;;;;;5043204;28;20114;-71
2022/06/29 01:53:22;;;;;;;1.10;0.40;;;15.70;99.90;;;;;;5041682;28;20543;-71
2022/06/29 01:55:49;;;;;;;0.90;0.20;;;15.60;99.90;;;;;;5044281;28;20084;-71
2022/06/29 01:58:16;;;;;;;0.20;0.20;;;15.60;99.90;;;;;;5044132;28;20088;-71
2022/06/29 02:00:44;;;;;;;0.40;0.20;;;15.60;99.90;;;;;;5044518;28;20417;-71
2022/06/29 02:03:11;;;;;;;0.43;0.30;;;15.60;99.90;;;;;;5019480;28;20152;-71
2022/06/29 02:05:37;;;;;;;0.10;0.10;;;15.60;99.90;;;;;;5042864;28;20080;-71
2022/06/29 02:08:05;;;;;;;0.10;0.10;;;15.60;99.90;;;;;;5044376;28;20094;-71
2022/06/29 02:10:32;;;;;;;0.60;0.30;;;15.50;99.90;;;;;;5044706;28;20470;-71
2022/06/29 02:12:59;;;;;;;0.38;0.20;;;15.60;99.90;;;;;;5043754;28;20135;-71
2022/06/29 02:15:26;;;;;;;0.55;0.30;;;15.60;99.90;;;;;;5042833;28;20045;-71
2022/06/29 02:17:53;;;;;;;0.55;0.40;;;15.60;99.90;;;;;;5043770;28;20140;-71
2022/06/29 02:20:20;;;;;;;0.68;0.30;;;15.60;99.90;;;;;;5026634;28;20156;-71
2022/06/29 02:22:47;;;;;;;0.60;0.30;;;15.60;99.90;;;;;;5019054;28;20412;-71
2022/06/29 02:25:13;;;;;;;1.05;0.40;;;15.50;99.90;;;;;;5043634;28;20496;-71
2022/06/29 02:27:41;;;;;;;0.38;0.20;;;15.60;99.90;;;;;;5043664;28;20092;-71
2022/06/29 02:30:09;;;;;;;1.00;0.50;;;15.60;99.90;;;;;;5026514;28;20150;-71
2022/06/29 02:35:21;;;;;;;1.20;0.40;;;15.60;99.90;;;;;;5043229;28;20079;-71
2022/06/29 02:37:48;;;;;;;0.52;0.28;;;15.60;99.90;;;;;;5043372;28;20143;-72
2022/06/29 02:40:14;;;;;;;0.93;0.30;;;15.60;99.90;;;;;;5043207;28;20056;-71
2022/06/29 02:42:41;;;;;;;1.02;0.30;;;15.60;99.90;;;;;;5033568;28;20148;-72
2022/06/29 02:45:28;;;;;;;0.38;0.20;;;15.60;99.90;;;;;;5042543;28;20056;-71
2022/06/29 02:47:55;;;;;;;0.32;0.10;;;15.60;99.90;;;;;;5042742;28;20110;-71
2022/06/29 02:50:22;;;;;;;0.38;0.30;;;15.60;99.90;;;;;;5043435;28;20132;-71
2022/06/29 02:52:48;;;;;;;0.98;0.20;;;15.60;99.90;;;;;;5023041;28;20081;-71
2022/06/29 02:55:15;;;;;;;0.30;0.30;;;15.60;99.90;;;;;;5042940;28;20424;-72
2022/06/29 02:57:42;;;;;;;0.38;0.30;;;15.60;99.90;;;;;;5042115;28;20072;-71
2022/06/29 03:00:09;;;;;;;1.05;0.40;;;15.60;99.90;;;;;;5044944;28;20174;-71
2022/06/29 03:02:36;;;;;;;0.15;0.13;;;15.60;99.90;;;;;;5026925;28;20161;-71
2022/06/29 03:05:03;;;;;;;0.38;0.25;;;15.60;99.90;;;;;;5044803;28;20140;-71
2022/06/29 03:07:30;;;;;;;0.28;0.20;;;15.60;99.90;;;;;;5045683;28;20129;-71
2022/06/29 03:09:56;;;;;;;0.25;0.20;;;15.70;99.90;;;;;;5044901;28;20049;-71
2022/06/29 03:12:23;;;;;;;1.20;0.32;;;15.70;99.90;;;;;;5026502;28;20405;-71
2022/06/29 03:14:50;;;;;;;0.25;0.17;;;15.70;99.90;;;;;;5045015;28;20084;-71
2022/06/29 03:17:17;;;;;;;0.10;0.10;;;15.70;99.90;;;;;;5044622;28;20085;-71
2022/06/29 03:19:43;;;;;;;0.30;0.20;;;15.70;99.90;;;;;;5044786;28;20116;-71
2022/06/29 03:22:10;;;;;;;0.30;0.20;;;15.70;99.90;;;;;;5026656;28;20512;-71
2022/06/29 03:24:37;;;;;;;0.40;0.28;;;15.70;99.90;;;;;;5044003;28;20091;-71
2022/06/29 03:27:04;;;;;;;0.20;0.20;;;15.70;99.90;;;;;;5044832;28;20077;-71
2022/06/29 03:29:31;;;;;;;0.43;0.38;;;15.70;99.90;;;;;;5010648;28;20122;-71
2022/06/29 03:31:58;;;;;;;0.32;0.17;;;15.80;99.90;;;;;;5026232;28;20116;-71
2022/06/29 03:34:25;;;;;;;0.50;0.20;;;15.80;99.90;;;;;;5045321;28;20041;-71
2022/06/29 03:36:51;;;;;;;0.10;0.10;;;15.80;99.90;;;;;;5043250;28;20131;-71
2022/06/29 03:39:18;;;;;;;0.60;0.13;;;15.70;99.90;;;;;;5044527;28;20132;-71
2022/06/29 03:41:45;;;;;;;0.20;0.20;;;15.70;99.90;;;;;;5043999;28;20059;-71
2022/06/29 03:44:11;;;;;;;0.43;0.25;;;15.80;99.90;;;;;;5044890;28;20148;-71
2022/06/29 03:46:38;;;;;;;0.43;0.30;;;15.80;99.90;;;;;;5042783;28;20049;-71
2022/06/29 03:49:05;;;;;;;0.63;0.20;;;15.80;99.90;;;;;;5045191;28;20486;-71
2022/06/29 03:51:33;;;;;;;0.13;0.13;;;15.70;99.90;;;;;;5043611;28;20037;-71
2022/06/29 03:54:00;;;;;;;0.63;0.25;;;15.80;99.90;;;;;;5044948;28;20048;-71
2022/06/29 03:56:26;;;;;;;0.63;0.30;;;15.80;99.90;;;;;;5044129;28;20048;-71
2022/06/29 03:58:53;;;;;;;0.45;0.20;;;15.80;99.90;;;;;;5045173;28;20128;-71
2022/06/29 04:01:20;;;;;;;0.20;0.20;;;15.80;99.90;;;;;;5031418;28;20147;-71
2022/06/29 04:03:47;;;;;;;0.40;0.20;;;15.80;99.90;;;;;;5048442;28;20552;-71
2022/06/29 04:06:13;;;;;;;0.40;0.20;;;15.80;99.90;;;;;;5030210;28;20053;-71
2022/06/29 04:08:40;;;;;;;0.55;0.30;;;15.80;99.90;;;;;;5048172;28;20113;-71
2022/06/29 04:11:48;;;;;;;0.30;0.20;;;15.80;99.90;;;;;;5048746;28;20079;-71
2022/06/29 04:13:54;;;;;;;0.30;0.30;;;15.80;99.90;;;;;;5041100;28;21004;-71
2022/06/29 04:16:21;;;;;;;0.55;0.25;;;15.80;99.90;;;;;;5014600;28;20083;-71
2022/06/29 04:18:47;;;;;;;0.30;0.20;;;15.80;99.90;;;;;;5048691;28;20052;-71
2022/06/29 04:21:17;;;;;;;0.65;0.40;;;15.80;99.90;;;;;;5046505;28;20396;-71
2022/06/29 04:23:44;;;;;;;0.30;0.22;;;15.80;99.90;;;;;;5047931;28;20136;-70
2022/06/29 04:26:11;;;;;;;0.10;0.10;;;15.80;99.90;;;;;;5046762;28;20069;-71
2022/06/29 04:28:37;;;;;;;0.38;0.10;;;15.80;99.90;;;;;;5047272;28;20141;-71
2022/06/29 04:31:04;;;;;;;0.80;0.25;;;15.90;99.90;;;;;;5030715;28;20131;-71
2022/06/29 04:33:31;;;;;;;0.52;0.22;;;15.90;99.90;;;;;;5047662;28;20044;-71
2022/06/29 04:35:57;;;;;;;0.30;0.20;;;15.90;99.90;;;;;;5045976;28;20049;-71
2022/06/29 04:38:24;;;;;;;0.28;0.20;;;15.90;99.90;;;;;;5048336;28;20061;-72
2022/06/29 04:40:51;;;;;;;0.90;0.30;;;16.00;99.90;;;;;;5047925;28;20159;-72
2022/06/29 04:43:18;;;;;;;0.20;0.15;;;16.00;99.90;;;;;;5047310;28;20715;-71
2022/06/29 04:48:29;;;;;;;0.75;0.10;;;16.00;99.90;;;;;;5044427;28;20126;-71
2022/06/29 04:50:56;;;;;;;0.20;0.20;;;16.00;99.90;;;;;;5045307;28;20045;-72
2022/06/29 04:53:23;;;;;;;0.15;0.13;;;16.10;99.90;;;;;;5045929;28;20044;-71
2022/06/29 04:55:50;;;;;;;1.08;0.20;;;16.10;99.90;;;;;;5044300;28;20065;-71
2022/06/29 04:58:16;;;;;;;0.82;0.30;;;16.10;99.90;;;;;;5027475;28;20083;-71
2022/06/29 05:00:43;;;;;;;0.25;0.20;;;16.10;99.90;;;;;;5044395;28;20077;-72
2022/06/29 05:03:10;;;;;;;0.35;0.20;;;16.10;99.90;;;;;;5027118;28;20049;-71
2022/06/29 05:05:37;;;;;;;0.20;0.20;;;16.10;99.90;;;;;;5041806;28;20071;-72
2022/06/29 05:08:04;;;;;;;0.30;0.20;;;16.10;99.90;;;;;;5025899;28;20055;-70
2022/06/29 05:10:31;;;;;;;0.85;0.38;;;16.20;99.90;;;;;;5039612;28;20511;-72
2022/06/29 05:12:57;;;;;;;0.90;0.32;;;16.20;99.90;;;;;;5041139;28;20145;-72
2022/06/29 05:15:24;;;;;;;0.50;0.20;;;16.30;99.90;;;;;;5026772;28;20749;-72
2022/06/29 05:17:51;;;;;;;0.30;0.28;;;16.30;99.90;;;;;;5005084;28;20051;-71
2022/06/29 05:20:20;;;;;;;0.98;0.43;;;16.30;99.90;;;;;;5021457;28;20520;-71
2022/06/29 05:22:47;;;;;;;0.60;0.30;;;16.30;99.90;;;;;;5041524;28;20384;-71
2022/06/29 05:25:14;;;;;;;0.40;0.30;;;16.30;99.90;;;;;;5039419;28;20557;-71
2022/06/29 05:27:40;;;;;;;0.80;0.40;;;16.30;99.90;;;;;;5010185;28;20792;-71
2022/06/29 05:30:07;;;;;;;0.45;0.30;;;16.40;99.90;;;;;;5043089;28;20059;-71
2022/06/29 05:32:35;;;;;;;0.57;0.30;;;16.40;99.90;;;;;;5023531;28;20194;-71
2022/06/29 05:35:02;;;;;;;0.50;0.30;;;16.40;99.90;;;;;;5040838;28;20570;-72
2022/06/29 05:37:29;;;;;;;0.93;0.50;;;16.50;99.90;;;;;;5014501;28;20068;-71
2022/06/29 05:39:56;;;;;;;1.23;0.40;;;16.50;99.90;;;;;;5012547;28;20076;-72
2022/06/29 05:42:22;;;;;;;0.68;0.47;;;16.50;99.90;;;;;;5042663;28;20513;-71
2022/06/29 05:44:49;;;;;;;0.17;0.17;;;16.50;99.90;;;;;;5043180;28;20045;-72
2022/06/29 05:47:16;;;;;;;0.50;0.30;;;16.60;99.90;;;;;;5031926;28;20494;-71
2022/06/29 05:49:42;;;;;;;0.28;0.28;;;16.60;99.90;;;;;;5029536;28;20124;-71
2022/06/29 05:52:09;;;;;;;0.30;0.30;;;16.60;99.90;;;;;;5026343;28;20727;-71
2022/06/29 05:54:36;;;;;;;0.68;0.55;;;16.60;99.90;;;;;;5017039;28;20076;-71
2022/06/29 05:57:04;;;;;;;0.90;0.45;;;16.70;99.90;;;;;;5044314;28;20127;-71
2022/06/29 05:59:31;;;;;;;0.50;0.38;;;16.70;99.90;;;;;;5040286;28;20216;-72
2022/06/29 06:01:58;;;;;;;0.65;0.30;;;16.70;99.90;;;;;;5044456;28;20136;-71
2022/06/29 06:04:25;;;;;;;0.35;0.32;;;16.70;99.90;;;;;;5031609;28;20176;-71
2022/06/29 06:06:52;;;;;;;0.98;0.43;;;16.80;99.90;;;;;;5003411;28;20064;-71
2022/06/29 06:09:24;;;;;;;1.67;0.60;;;17.00;99.90;;;;;;5034711;28;20130;-71
2022/06/29 06:11:51;;;;;;;1.05;0.68;;;17.10;99.90;;;;;;5009695;28;20041;-73
2022/06/29 06:14:18;;;;;;;0.63;0.47;;;17.20;99.90;;;;;;5026678;28;20134;-73
2022/06/29 06:16:44;;;;;;;0.45;0.28;;;17.30;99.90;;;;;;5040699;28;20209;-72
2022/06/29 06:19:11;;;;;;;0.57;0.30;;;17.40;99.90;;;;;;5049377;28;20053;-72
2022/06/29 06:21:38;;;;;;;0.40;0.22;;;17.50;99.90;;;;;;5032208;28;20068;-72
2022/06/29 06:24:05;;;;;;;0.22;0.20;;;17.60;99.90;;;;;;5041103;28;20142;-72
2022/06/29 06:26:32;;;;;;;0.30;0.30;;;17.50;99.90;;;;;;5010273;28;20488;-72
2022/06/29 06:28:59;;;;;;;0.43;0.20;;;17.60;99.90;;;;;;5042819;28;20049;-72
2022/06/29 06:31:26;;;;;;;0.95;0.50;;;17.50;99.90;;;;;;5008652;28;20164;-72
2022/06/29 06:33:54;;;;;;;0.45;0.30;;;17.40;99.90;;;;;;5023590;28;20053;-72
2022/06/29 06:36:20;;;;;;;0.65;0.30;;;17.40;99.90;;;;;;5007473;28;20052;-73
2022/06/29 06:38:47;;;;;;;0.35;0.30;;;17.30;99.90;;;;;;5010393;28;20136;-72
2022/06/29 06:41:23;;;;;;;0.68;0.30;;;17.30;99.90;;;;;;5026652;28;20122;-73
2022/06/29 06:43:50;;;;;;;0.35;0.22;;;17.30;99.90;;;;;;5044167;28;20095;-73
2022/06/29 06:46:18;;;;;;;0.85;0.38;;;17.20;99.90;;;;;;5027105;28;20128;-73
2022/06/29 06:48:45;;;;;;;0.30;0.25;;;17.20;99.90;;;;;;4994753;28;20124;-73
2022/06/29 06:51:12;;;;;;;2.75;1.00;;;17.20;99.90;;;;;;5009896;28;20502;-73
2022/06/29 06:53:39;;;;;;;0.52;0.40;;;17.20;99.90;;;;;;4994103;28;20081;-73
2022/06/29 06:56:06;;;;;;;0.50;0.40;;;17.30;99.90;;;;;;5044472;28;20048;-74
2022/06/29 06:58:36;;;;;;;0.40;0.30;;;17.40;99.90;;;;;;5026145;28;20049;-74
2022/06/29 07:01:10;;;;;;;0.63;0.52;;;17.50;99.90;;;;;;5026448;28;20049;-73
2022/06/29 07:03:37;;;;;;;0.35;0.20;;;17.50;99.90;;;;;;5022986;28;20479;-73
2022/06/29 07:06:08;;;;;;;0.60;0.20;;;17.50;99.90;;;;;;5041050;28;20136;-74
2022/06/29 07:08:37;;;;;;;0.47;0.40;;;17.50;99.90;;;;;;5009480;28;20457;-73
2022/06/29 07:11:04;;;;;;;1.08;0.50;;;17.50;99.90;;;;;;5010397;28;20575;-73
2022/06/29 07:13:34;;;;;;;0.10;0.10;;;17.60;99.90;;;;;;5042647;28;20037;-73
2022/06/29 07:16:05;;;;;;;0.30;0.30;;;17.70;99.90;;;;;;5040393;28;20296;-73
2022/06/29 07:18:32;;;;;;;0.20;0.20;;;17.90;99.90;;;;;;5015930;28;20143;-73
2022/06/29 07:20:59;;;;;;;0.73;0.40;;;18.10;99.90;;;;;;5026009;28;20132;-73
2022/06/29 07:23:27;;;;;;;0.25;0.22;;;18.30;99.90;;;;;;5031112;28;20312;-73
2022/06/29 07:25:55;;;;;;;0.47;0.30;;;18.40;99.90;;;;;;5040567;28;20055;-72
2022/06/29 07:28:21;;;;;;;0.65;0.35;;;18.50;99.90;;;;;;5007986;28;20363;-73
2022/06/29 07:30:48;;;;;;;0.32;0.20;;;18.70;99.90;;;;;;5024885;28;20149;-73
2022/06/29 07:33:15;;;;;;;0.65;0.30;;;18.80;99.90;;;;;;5030455;28;20049;-73
2022/06/29 07:35:45;;;;;;;0.20;0.20;;;18.90;99.90;;;;;;5043457;28;20437;-73
2022/06/29 07:38:12;;;;;;;0.30;0.30;;;18.80;99.90;;;;;;5043463;28;20087;-74
2022/06/29 07:40:38;;;;;;;0.30;0.20;;;18.80;99.90;;;;;;5028273;28;20121;-73
2022/06/29 07:43:05;;;;;;;0.40;0.40;;;18.80;99.90;;;;;;5031412;28;20148;-73
2022/06/29 07:45:32;;;;;;;0.70;0.40;;;18.90;99.90;;;;;;5041893;28;20052;-73
2022/06/29 07:48:01;;;;;;;0.35;0.35;;;18.90;99.90;;;;;;5039576;28;20071;-74
2022/06/29 07:50:27;;;;;;;0.80;0.28;;;19.00;99.90;;;;;;5035718;28;20057;-73
2022/06/29 07:52:54;;;;;;;0.40;0.25;;;18.90;99.90;;;;;;5022294;28;20052;-74
2022/06/29 07:55:21;;;;;;;1.25;0.40;;;18.80;99.90;;;;;;5038784;28;20128;-74
2022/06/29 07:57:48;;;;;;;0.30;0.22;;;18.70;99.90;;;;;;5023535;28;20061;-73
2022/06/29 08:00:15;;;;;;;0.95;0.30;;;18.60;99.90;;;;;;5044271;28;20080;-73
2022/06/29 08:02:41;;;;;;;0.20;0.20;;;18.60;99.90;;;;;;5041899;28;20136;-73
2022/06/29 08:05:08;;;;;;;0.57;0.30;;;18.60;99.90;;;;;;5043454;28;20053;-73
2022/06/29 08:07:35;;;;;;;1.08;0.43;;;18.60;99.90;;;;;;5022644;28;20076;-74
2022/06/29 08:10:03;;;;;;;0.20;0.20;;;18.70;99.90;;;;;;5051530;28;20049;-73
2022/06/29 08:12:30;;;;;;;0.32;0.30;;;18.70;99.90;;;;;;5038478;28;20080;-73
2022/06/29 08:14:56;;;;;;;0.32;0.32;;;19.00;99.90;;;;;;5022258;28;20100;-73
2022/06/29 08:17:23;;;;;;;0.52;0.52;;;19.20;99.90;;;;;;5043602;28;20136;-73
2022/06/29 08:19:56;;;;;;;0.20;0.20;;;19.30;99.90;;;;;;5017896;28;20672;-73
2022/06/29 08:22:23;;;;;;;0.20;0.20;;;19.40;99.90;;;;;;5008163;28;20052;-73
2022/06/29 08:24:50;;;;;;;0.20;0.20;;;19.50;99.90;;;;;;5038227;28;20080;-72
2022/06/29 08:27:21;;;;;;;0.25;0.22;;;19.70;99.90;;;;;;5037999;28;20150;-73
2022/06/29 08:30:08;;;;;;;0.10;0.10;;;19.90;99.90;;;;;;5026961;28;20048;-73
2022/06/29 08:32:39;;;;;;;0.25;0.20;;;20.20;99.90;;;;;;5014205;28;20073;-73
2022/06/29 08:35:06;;;;;;;0.35;0.20;;;20.30;99.90;;;;;;5009205;28;20506;-73
2022/06/29 08:37:36;;;;;;;0.15;0.15;;;20.50;99.90;;;;;;5021324;28;20048;-74
2022/06/29 08:40:08;;;;;;;0.65;0.32;;;20.80;99.90;;;;;;4995140;28;20056;-73
2022/06/29 08:42:37;;;;;;;0.47;0.32;;;20.80;99.90;;;;;;5020749;28;20461;-73
2022/06/29 08:45:06;;;;;;;0.40;0.30;;;20.70;99.90;;;;;;5007939;28;20053;-73
2022/06/29 08:47:32;;;;;;;0.75;0.40;;;20.70;99.90;;;;;;5035013;28;20159;-73
2022/06/29 08:50:03;;;;;;;0.20;0.20;;;20.50;99.90;;;;;;5024441;28;20143;-73
2022/06/29 08:52:30;;;;;;;0.20;0.20;;;20.30;99.90;;;;;;5015634;28;20088;-74
2022/06/29 08:54:56;;;;;;;0.13;0.13;;;20.10;99.90;;;;;;5031921;28;20048;-73
2022/06/29 08:57:23;;;;;;;0.40;0.20;;;19.80;99.90;;;;;;5041310;28;20041;-73
2022/06/29 08:59:51;;;;;;;0.32;0.20;;;19.80;99.90;;;;;;5030916;28;20064;-73
2022/06/29 09:02:28;;;;;;;0.40;0.30;;;19.70;99.90;;;;;;5039089;28;20045;-74
2022/06/29 09:04:55;;;;;;;0.28;0.25;;;19.70;99.90;;;;;;5044090;28;20496;-74
2022/06/29 09:07:23;;;;;;;0.45;0.32;;;19.60;99.90;;;;;;5042928;28;20049;-74
2022/06/29 09:10:03;;;;;;;0.28;0.20;;;19.60;99.90;;;;;;5041453;28;20107;-74
2022/06/29 09:12:31;;;;;;;0.32;0.20;;;19.70;99.90;;;;;;5026545;28;20073;-73
2022/06/29 09:14:58;;;;;;;0.60;0.35;;;19.70;99.90;;;;;;5027122;28;20049;-73
2022/06/29 09:17:25;;;;;;;0.22;0.15;;;19.60;99.90;;;;;;5009703;28;20044;-73
2022/06/29 09:19:53;;;;;;;0.22;0.22;;;19.50;99.90;;;;;;5022714;28;20049;-73
2022/06/29 09:22:51;;;;;;;0.40;0.38;;;19.60;99.90;;;;;;5028010;28;20195;-73
2022/06/29 09:25:25;;;;;;;0.30;0.30;;;19.70;99.90;;;;;;5017026;28;20128;-72
2022/06/29 09:27:56;;;;;;;0.52;0.40;;;19.80;99.90;;;;;;5020301;28;20548;-73
2022/06/29 09:30:28;;;;;;;0.30;0.30;;;20.00;99.90;;;;;;5040671;28;20060;-72
2022/06/29 09:33:07;;;;;;;0.30;0.30;;;20.00;99.90;;;;;;5039744;28;20068;-73
2022/06/29 09:35:35;;;;;;;0.45;0.35;;;20.00;99.90;;;;;;4995719;28;20052;-73
2022/06/29 09:38:24;;;;;;;0.43;0.30;;;20.10;99.90;;;;;;5019636;28;20482;-71
2022/06/29 09:41:05;;;;;;;0.30;0.13;;;20.20;99.90;;;;;;5024065;28;20061;-72
2022/06/29 09:43:34;;;;;;;0.20;0.20;;;20.10;99.90;;;;;;5035351;28;20052;-71
2022/06/29 09:46:01;;;;;;;0.40;0.20;;;20.00;99.90;;;;;;5029075;28;20160;-71
2022/06/29 09:48:29;;;;;;;0.28;0.20;;;19.90;99.90;;;;;;5044850;28;20106;-70
2022/06/29 09:50:56;;;;;;;0.20;0.20;;;19.70;99.90;;;;;;5027846;28;20433;-71
2022/06/29 09:53:39;;;;;;;0.22;0.20;;;19.50;99.90;;;;;;5026526;28;20053;-71
2022/06/29 09:56:07;;;;;;;0.98;0.30;;;19.20;99.90;;;;;;5043301;28;20784;-71
2022/06/29 09:58:47;;;;;;;0.30;0.20;;;19.00;99.90;;;;;;5041999;28;20081;-71
2022/06/29 10:04:01;;;;;;;0.20;0.20;;;19.10;99.90;;;;;;5030285;28;20076;-72
2022/06/29 10:06:28;;;;;;;0.38;0.30;;;19.20;99.90;;;;;;5026789;28;20092;-71
2022/06/29 10:09:01;;;;;;;0.17;0.17;;;19.10;99.90;;;;;;5045407;28;20546;-71
2022/06/29 10:14:43;;;;;;;0.35;0.20;;;18.70;99.90;;;;;;5035143;28;20077;-71
2022/06/29 10:17:32;;;;;;;1.98;0.45;;;18.50;99.90;;;;;;5045163;28;20152;-70
2022/06/29 10:20:35;;;;;;;0.82;0.40;;;18.00;99.90;;;;;;5029593;28;20060;-71
2022/06/29 10:23:02;;;;;;;1.48;0.50;;;17.60;99.90;;;;;;5009256;28;20534;-71
2022/06/29 10:25:29;;;;;;;0.82;0.50;;;17.20;99.90;;;;;;5007407;28;20240;-71
2022/06/29 10:28:18;;;;;;;0.70;0.50;;;17.10;99.90;;;;;;5024204;28;20045;-71
2022/06/29 10:30:45;;;;;;;1.77;0.65;;;17.10;99.90;;;;;;5027814;28;20045;-70
2022/06/29 10:33:32;;;;;;;0.73;0.50;;;17.10;99.90;;;;;;5026403;28;20045;-71
2022/06/29 10:36:04;;;;;;;0.85;0.40;;;17.00;99.90;;;;;;5027007;28;20168;-71
2022/06/29 10:38:31;;;;;;;1.52;0.60;;;17.00;99.90;;;;;;5011383;28;20124;-71
2022/06/29 10:41:09;;;;;;;0.65;0.30;;;16.90;99.90;;;;;;5026852;28;20092;-70
2022/06/29 10:43:39;;;;;;;0.63;0.38;;;17.00;99.90;;;;;;5042037;28;20098;-70
2022/06/29 10:46:05;;;;;;;0.43;0.40;;;17.00;99.90;;;;;;5024488;28;20055;-70
2022/06/29 10:48:32;;;;;;;0.68;0.38;;;17.10;99.90;;;;;;5042873;28;20124;-71
2022/06/29 10:50:59;;;;;;;0.63;0.40;;;17.10;99.90;;;;;;5043976;28;20145;-71
2022/06/29 10:53:26;;;;;;;1.63;0.70;;;17.10;99.90;;;;;;5037577;28;20049;-71
2022/06/29 10:55:55;;;;;;;0.95;0.40;;;17.30;99.90;;;;;;5026869;28;20514;-70
2022/06/29 10:58:22;;;;;;;1.17;0.60;;;17.30;99.90;;;;;;5040976;28;20480;-71
2022/06/29 11:00:52;;;;;;;0.57;0.40;;;17.30;99.90;;;;;;5011492;28;20437;-71
2022/06/29 11:03:26;;;;;;;0.35;0.30;;;17.30;99.90;;;;;;5032532;28;20504;-71
2022/06/29 11:16:59;;;;;;;0.30;0.30;;;18.00;99.90;;;;;;5041007;28;20132;-71
2022/06/29 11:19:31;;;;;;;0.20;0.20;;;18.10;99.90;;;;;;5024782;28;20048;-71
2022/06/29 11:22:17;;;;;;;0.50;0.50;;;18.10;99.90;;;;;;5023631;28;20057;-71
2022/06/29 11:24:58;;;;;;;0.20;0.20;;;18.20;99.90;;;;;;5028426;28;20418;-71
2022/06/29 11:27:38;;;;;;;0.60;0.50;;;18.40;99.90;;;;;;5015617;28;20529;-71
2022/06/29 11:30:15;;;;;;;0.68;0.40;;;18.40;99.90;;;;;;5033405;28;20099;-71
2022/06/29 11:32:43;;;;;;;1.10;0.60;;;18.40;99.90;;;;;;5008023;28;20581;-71
2022/06/29 11:35:12;;;;;;;0.85;0.50;;;18.30;99.90;;;;;;5022477;28;20335;-71
2022/06/29 11:37:46;;;;;;;0.30;0.30;;;18.50;99.90;;;;;;5009081;28;20045;-71
2022/06/29 11:40:12;;;;;;;0.38;0.38;;;18.90;99.90;;;;;;5022666;28;20462;-71
2022/06/29 11:45:38;;;;;;;0.65;0.32;;;19.60;99.90;;;;;;5044014;28;20110;-71
2022/06/29 11:48:20;;;;;;;0.90;0.50;;;19.80;99.90;;;;;;5026841;28;20060;-70
2022/06/29 11:50:49;;;;;;;0.60;0.40;;;19.80;99.90;;;;;;5025228;28;20135;-71
2022/06/29 11:53:35;;;;;;;0.40;0.38;;;19.90;99.90;;;;;;5031094;28;20123;-71
2022/06/29 11:56:09;;;;;;;1.42;0.43;;;19.90;99.90;;;;;;5043009;28;20127;-70
2022/06/29 11:58:44;;;;;;;0.70;0.52;;;20.10;99.90;;;;;;5017322;28;20084;-71
2022/06/29 12:01:15;;;;;;;0.43;0.43;;;20.60;99.90;;;;;;5038426;28;20442;-71
2022/06/29 12:03:58;;;;;;;0.60;0.50;;;21.20;99.90;;;;;;5012461;28;20087;-71
2022/06/29 12:06:26;;;;;;;0.38;0.30;;;21.90;99.90;;;;;;5004878;28;20049;-71
2022/06/29 12:08:53;;;;;;;0.32;0.30;;;22.00;99.90;;;;;;5042784;28;20183;-71
2022/06/29 12:11:21;;;;;;;0.40;0.40;;;22.10;99.90;;;;;;5022635;28;20140;-71
2022/06/29 12:13:49;;;;;;;0.45;0.40;;;22.40;99.90;;;;;;5019172;28;20140;-70
2022/06/29 12:16:16;;;;;;;0.20;0.20;;;23.00;99.90;;;;;;5018931;28;20132;-71
2022/06/29 12:18:43;;;;;;;0.32;0.17;;;23.20;99.90;;;;;;5019017;28;20053;-70
2022/06/29 12:21:09;;;;;;;0.15;0.15;;;23.10;99.90;;;;;;5021368;28;20475;-70
2022/06/29 12:23:36;;;;;;;0.60;0.60;;;22.80;99.90;;;;;;5040421;28;20118;-71
2022/06/29 12:26:03;;;;;;;0.68;0.50;;;23.30;99.90;;;;;;5022930;28;20136;-71
2022/06/29 12:28:30;;;;;;;0.28;0.20;;;23.70;99.90;;;;;;5023065;28;20162;-71
2022/06/29 12:30:57;;;;;;;0.60;0.50;;;24.00;99.90;;;;;;5006971;28;20049;-71
2022/06/29 12:33:23;;;;;;;0.22;0.22;;;23.90;99.90;;;;;;5022187;28;20432;-71
2022/06/29 12:35:50;;;;;;;0.85;0.45;;;23.80;99.90;;;;;;5021887;28;20140;-71
2022/06/29 12:38:17;;;;;;;0.32;0.32;;;23.80;99.90;;;;;;5022891;28;20144;-71
2022/06/29 12:40:44;;;;;;;0.65;0.40;;;24.10;99.90;;;;;;5022455;28;20064;-71
2022/06/29 12:43:10;;;;;;;0.43;0.38;;;24.60;99.90;;;;;;5022155;28;20457;-71
2022/06/29 12:45:37;;;;;;;0.40;0.40;;;25.10;99.90;;;;;;5040250;28;20136;-71
2022/06/29 12:48:04;;;;;;;0.55;0.35;;;25.20;99.90;;;;;;5038511;28;20462;-71
2022/06/29 12:50:31;;;;;;;0.30;0.30;;;25.60;99.90;;;;;;5040358;28;20097;-71
2022/06/29 12:52:58;;;;;;;0.50;0.40;;;25.40;99.90;;;;;;5038503;28;20148;-71
2022/06/29 12:55:25;;;;;;;1.40;0.43;;;25.30;99.90;;;;;;5017156;28;20488;-71
2022/06/29 12:57:51;;;;;;;0.40;0.30;;;24.90;99.90;;;;;;5021105;28;20077;-71
2022/06/29 13:00:18;;;;;;;0.55;0.40;;;24.60;99.90;;;;;;5022273;28;20052;-71
2022/06/29 13:02:45;;;;;;;0.50;0.45;;;24.80;99.80;;;;;;5021332;28;20565;-71
2022/06/29 13:05:12;;;;;;;0.40;0.40;;;25.20;99.70;;;;;;5020263;28;20389;-72
2022/06/29 13:07:38;;;;;;;0.40;0.32;;;25.70;98.10;;;;;;5034460;28;20044;-71
2022/06/29 13:10:06;;;;;;;0.25;0.20;;;25.70;98.50;;;;;;5039107;28;20160;-71
2022/06/29 13:12:33;;;;;;;0.70;0.30;;;25.50;98.00;;;;;;5004831;28;20049;-71
2022/06/29 13:15:00;;;;;;;0.25;0.20;;;25.30;98.00;;;;;;5004939;28;20083;-71
2022/06/29 13:17:27;;;;;;;0.40;0.40;;;25.10;98.40;;;;;;4996344;28;20653;-71
2022/06/29 13:19:55;;;;;;;0.50;0.38;;;24.80;99.70;;;;;;5039258;28;20061;-70